| time (UTC) | temp C | wind direction | speed KPH | gust KPH | rain 1hr cm | rain 24hr cm | rain mn cm | humidity % | barometer mb |
| 20260510192736 | 10 | 81 | 14.5 | 16.1 | 0.36 | 0.25 | 0.25 | 87 | 1025.0 |
| 20260510192232 | 11 | 66 | 3.2 | 8.0 | 0.43 | 0.23 | 0.23 | 86 | 1025.5 |
| 20260510191728 | 11 | 5 | 16.1 | 17.7 | 0.48 | 0.18 | 0.18 | 86 | 1025.5 |
| 20260510191224 | 11 | 341 | 6.4 | 14.5 | 0.53 | 0.15 | 0.15 | 85 | 1025.5 |
| 20260510190722 | 11 | 55 | 11.3 | 24.1 | 0.36 | 0.10 | 0.10 | 84 | 1025.0 |
| 20260510190219 | 11 | 31 | 24.1 | 30.6 | 0.18 | 0.05 | 0.05 | 83 | 1024.9 |
| 20260510185716 | 11 | 37 | 17.7 | 30.6 | 0.18 | 0.03 | 0.03 | 81 | 1024.9 |
| 20260510185215 | 12 | 25 | 24.1 | 33.8 | 0.00 | 0.00 | 0.00 | 79 | 1024.9 |
| 20260510184710 | 12 | 68 | 32.2 | 37.0 | 0.00 | 0.00 | 0.00 | 79 | 1025.0 |
| 20260510184207 | 12 | 81 | 29.0 | 35.4 | 0.00 | 0.00 | 0.00 | 78 | 1024.5 |
| 20260510183702 | 12 | 57 | 22.5 | 40.2 | 0.00 | 0.00 | 0.00 | 78 | 1024.2 |
| 20260510183157 | 12 | 67 | 27.4 | 37.0 | 0.00 | 0.00 | 0.00 | 78 | 1023.9 |
| 20260510182654 | 12 | 73 | 24.1 | 37.0 | 0.00 | 0.00 | 0.00 | 79 | 1024.1 |
| 20260510182149 | 12 | 42 | 30.6 | 45.1 | 0.00 | 0.00 | 0.00 | 79 | 1023.7 |
| 20260510181647 | 13 | 22 | 22.5 | 40.2 | 0.00 | 0.00 | 0.00 | 79 | 1023.5 |
| 20260510181143 | 13 | 57 | 22.5 | 32.2 | 0.00 | 0.00 | 0.00 | 80 | 1023.4 |
| 20260510180639 | 13 | 38 | 14.5 | 53.1 | 0.00 | 0.00 | 0.00 | 80 | 1023.1 |
| 20260510180137 | 13 | 64 | 17.7 | 45.1 | 0.00 | 0.00 | 0.00 | 81 | 1023.2 |
| 20260510175633 | 12 | 39 | 24.1 | 41.8 | 0.00 | 0.00 | 0.00 | 81 | 1023.0 |
| 20260510175128 | 12 | 41 | 24.1 | 41.8 | 0.00 | 0.00 | 0.00 | 82 | 1022.9 |
| 20260510174626 | 12 | 26 | 24.1 | 33.8 | 0.00 | 0.00 | 0.00 | 82 | 1022.9 |
| 20260510174124 | 12 | 18 | 16.1 | 43.5 | 0.00 | 0.00 | 0.00 | 82 | 1022.9 |
| 20260510173619 | 12 | 29 | 35.4 | 48.3 | 0.00 | 0.00 | 0.00 | 83 | 1022.6 |
| 20260510173116 | 12 | 26 | 27.4 | 48.3 | 0.00 | 0.00 | 0.00 | 84 | 1022.6 |
| 20260510172611 | 12 | 30 | 38.6 | 46.7 | 0.00 | 0.00 | 0.00 | 85 | 1022.2 |
| 20260510172108 | 12 | 17 | 40.2 | 56.3 | 0.00 | 0.00 | 0.00 | 85 | 1022.0 |
| 20260510171605 | 12 | 22 | 29.0 | 56.3 | 0.00 | 0.00 | 0.00 | 86 | 1022.1 |
| 20260510171103 | 12 | 48 | 19.3 | 37.0 | 0.00 | 0.00 | 0.00 | 86 | 1022.5 |
| 20260510170559 | 12 | 31 | 20.9 | 46.7 | 0.00 | 0.00 | 0.00 | 87 | 1022.1 |
| 20260510170055 | 11 | 15 | 22.5 | 48.3 | 0.00 | 0.00 | 0.00 | 88 | 1022.6 |
| 20260510165551 | 11 | 36 | 20.9 | 41.8 | 0.00 | 0.00 | 0.00 | 88 | 1022.5 |
| 20260510165047 | 11 | 46 | 30.6 | 43.5 | 0.00 | 0.00 | 0.00 | 89 | 1022.5 |
| 20260510164545 | 11 | 25 | 27.4 | 46.7 | 0.00 | 0.00 | 0.00 | 89 | 1022.1 |
| 20260510164041 | 11 | 37 | 24.1 | 41.8 | 0.00 | 0.00 | 0.00 | 90 | 1022.3 |
| 20260510163536 | 11 | 34 | 19.3 | 46.7 | 0.00 | 0.00 | 0.00 | 90 | 1022.1 |
| 20260510163033 | 11 | 27 | 27.4 | 41.8 | 0.00 | 0.00 | 0.00 | 91 | 1022.0 |
| 20260510162528 | 11 | 27 | 35.4 | 45.1 | 0.00 | 0.00 | 0.00 | 91 | 1022.0 |
| 20260510162025 | 11 | 17 | 27.4 | 40.2 | 0.00 | 0.00 | 0.00 | 91 | 1021.9 |
| 20260510161520 | 11 | 11 | 38.6 | 43.5 | 0.00 | 0.00 | 0.00 | 91 | 1021.8 |
| 20260510161017 | 11 | 28 | 32.2 | 57.9 | 0.00 | 0.00 | 0.00 | 91 | 1021.9 |
| 20260510160509 | 11 | 27 | 27.4 | 41.8 | 0.00 | 0.00 | 0.00 | 91 | 1021.9 |
| 20260510160008 | 11 | 14 | 33.8 | 51.5 | 0.00 | 0.00 | 0.00 | 91 | 1021.7 |
| 20260510155504 | 11 | 29 | 20.9 | 45.1 | 0.00 | 0.00 | 0.00 | 90 | 1021.7 |
| 20260510155000 | 11 | 6 | 29.0 | 46.7 | 0.00 | 0.00 | 0.00 | 90 | 1021.6 |
| 20260510154451 | 11 | 15 | 24.1 | 45.1 | 0.00 | 0.00 | 0.00 | 90 | 1021.8 |
| 20260510153950 | 11 | 10 | 19.3 | 40.2 | 0.00 | 0.00 | 0.00 | 90 | 1021.7 |
| 20260510153447 | 11 | 25 | 27.4 | 35.4 | 0.00 | 0.00 | 0.00 | 89 | 1021.5 |
| 20260510152944 | 11 | 6 | 25.7 | 46.7 | 0.00 | 0.00 | 0.00 | 89 | 1021.5 |
| 20260510152441 | 11 | 15 | 32.2 | 41.8 | 0.00 | 0.00 | 0.00 | 89 | 1021.3 |
| 20260510151937 | 12 | 12 | 33.8 | 43.5 | 0.00 | 0.00 | 0.00 | 88 | 1021.3 |
| 20260510151434 | 12 | 14 | 29.0 | 41.8 | 0.00 | 0.00 | 0.00 | 88 | 1020.9 |
| 20260510150930 | 13 | 23 | 25.7 | 37.0 | 0.00 | 0.00 | 0.00 | 88 | 1020.7 |
| 20260510150426 | 13 | 27 | 25.7 | 41.8 | 0.00 | 0.00 | 0.00 | 88 | 1020.3 |
| 20260510145922 | 13 | 24 | 33.8 | 51.5 | 0.00 | 0.00 | 0.00 | 88 | 1020.0 |
| 20260510145413 | 13 | 40 | 24.1 | 33.8 | 0.00 | 0.00 | 0.00 | 88 | 1020.1 |
| 20260510144910 | 12 | 9 | 20.9 | 45.1 | 0.00 | 0.00 | 0.00 | 88 | 1020.0 |
| 20260510144407 | 13 | 15 | 19.3 | 35.4 | 0.00 | 0.00 | 0.00 | 88 | 1020.3 |
| 20260510143901 | 13 | 23 | 20.9 | 35.4 | 0.00 | 0.00 | 0.00 | 87 | 1020.2 |
| 20260510143357 | 13 | 13 | 27.4 | 43.5 | 0.00 | 0.00 | 0.00 | 87 | 1020.3 |
| 20260510142855 | 13 | 27 | 22.5 | 37.0 | 0.00 | 0.00 | 0.00 | 86 | 1020.0 |
| 20260510142351 | 13 | 31 | 17.7 | 46.7 | 0.00 | 0.00 | 0.00 | 86 | 1019.8 |
| 20260510141848 | 13 | 31 | 30.6 | 40.2 | 0.00 | 0.00 | 0.00 | 85 | 1019.8 |
| 20260510141345 | 13 | 32 | 14.5 | 32.2 | 0.00 | 0.00 | 0.00 | 84 | 1019.9 |
| 20260510140842 | 13 | 28 | 24.1 | 33.8 | 0.00 | 0.00 | 0.00 | 84 | 1019.7 |
| 20260510140338 | 13 | 29 | 30.6 | 38.6 | 0.00 | 0.00 | 0.00 | 83 | 1019.7 |
| 20260510135831 | 13 | 17 | 14.5 | 38.6 | 0.00 | 0.00 | 0.00 | 83 | 1019.6 |
| 20260510135327 | 13 | 30 | 29.0 | 37.0 | 0.00 | 0.00 | 0.00 | 83 | 1019.6 |
| 20260510134825 | 13 | 18 | 24.1 | 43.5 | 0.00 | 0.00 | 0.00 | 82 | 1019.4 |
| 20260510134322 | 13 | 31 | 32.2 | 45.1 | 0.00 | 0.00 | 0.00 | 82 | 1019.0 |
| 20260510133818 | 13 | 13 | 30.6 | 41.8 | 0.00 | 0.00 | 0.00 | 82 | 1018.7 |
| 20260510133314 | 13 | 28 | 22.5 | 38.6 | 0.00 | 0.00 | 0.00 | 82 | 1018.7 |
| 20260510132810 | 13 | 28 | 33.8 | 43.5 | 0.00 | 0.00 | 0.00 | 82 | 1018.8 |
| 20260510132308 | 14 | 0 | 16.1 | 43.5 | 0.00 | 0.00 | 0.00 | 82 | 1018.5 |
| 20260510131805 | 14 | 27 | 25.7 | 33.8 | 0.00 | 0.00 | 0.00 | 82 | 1018.5 |
| 20260510131303 | 14 | 9 | 20.9 | 45.1 | 0.00 | 0.00 | 0.00 | 82 | 1018.4 |
| 20260510130759 | 15 | 9 | 22.5 | 37.0 | 0.00 | 0.00 | 0.00 | 82 | 1018.1 |
| 20260510130256 | 15 | 22 | 19.3 | 38.6 | 0.00 | 0.00 | 0.00 | 82 | 1017.9 |
| 20260510125752 | 15 | 29 | 22.5 | 32.2 | 0.00 | 0.00 | 0.00 | 82 | 1017.9 |
| 20260510125248 | 15 | 33 | 12.9 | 30.6 | 0.00 | 0.00 | 0.00 | 82 | 1017.5 |
| 20260510124745 | 15 | 19 | 24.1 | 33.8 | 0.00 | 0.00 | 0.00 | 81 | 1017.5 |
| 20260510124243 | 15 | 33 | 24.1 | 27.4 | 0.00 | 0.00 | 0.00 | 81 | 1017.4 |
| 20260510123738 | 15 | 23 | 14.5 | 27.4 | 0.00 | 0.00 | 0.00 | 81 | 1017.1 |
| 20260510123234 | 15 | 38 | 22.5 | 25.7 | 0.00 | 0.00 | 0.00 | 81 | 1016.9 |
| 20260510122730 | 15 | 31 | 25.7 | 27.4 | 0.00 | 0.00 | 0.00 | 80 | 1016.8 |
| 20260510122227 | 15 | 69 | 9.7 | 32.2 | 0.00 | 0.00 | 0.00 | 80 | 1016.4 |
| 20260510121723 | 15 | 59 | 14.5 | 27.4 | 0.00 | 0.00 | 0.00 | 80 | 1016.3 |
| 20260510121221 | 15 | 47 | 17.7 | 24.1 | 0.00 | 0.00 | 0.00 | 80 | 1016.5 |
| 20260510120718 | 15 | 28 | 17.7 | 27.4 | 0.00 | 0.00 | 0.00 | 80 | 1016.3 |
| 20260510120214 | 15 | 34 | 12.9 | 24.1 | 0.00 | 0.00 | 0.00 | 80 | 1016.2 |
| 20260510115710 | 16 | 49 | 12.9 | 24.1 | 0.00 | 0.00 | 0.00 | 80 | 1016.1 |
| 20260510115209 | 16 | 23 | 16.1 | 27.4 | 0.00 | 0.00 | 0.00 | 80 | 1015.9 |
| 20260510114703 | 16 | 80 | 22.5 | 30.6 | 0.00 | 0.00 | 0.00 | 81 | 1015.6 |
| 20260510114200 | 16 | 87 | 17.7 | 30.6 | 0.00 | 0.00 | 0.00 | 82 | 1015.9 |
| 20260510113655 | 16 | 71 | 19.3 | 30.6 | 0.00 | 0.00 | 0.00 | 82 | 1015.5 |
| 20260510113152 | 15 | 69 | 32.2 | 32.2 | 0.00 | 0.00 | 0.00 | 82 | 1015.6 |
| 20260510112649 | 15 | 81 | 35.4 | 41.8 | 0.00 | 0.00 | 0.00 | 82 | 1015.3 |
| 20260510112146 | 15 | 86 | 29.0 | 43.5 | 0.00 | 0.00 | 0.00 | 82 | 1015.1 |
| 20260510111636 | 15 | 81 | 35.4 | 45.1 | 0.00 | 0.00 | 0.00 | 83 | 1015.2 |
| 20260510111133 | 15 | 75 | 38.6 | 43.5 | 0.00 | 0.00 | 0.00 | 83 | 1015.3 |
| 20260510110628 | 15 | 79 | 24.1 | 35.4 | 0.00 | 0.00 | 0.00 | 83 | 1015.3 |
| 20260510110125 | 15 | 74 | 12.9 | 43.5 | 0.00 | 0.00 | 0.00 | 83 | 1015.5 |
| 20260510105620 | 15 | 94 | 20.9 | 38.6 | 0.00 | 0.00 | 0.00 | 83 | 1015.3 |
| 20260510105115 | 15 | 57 | 11.3 | 25.7 | 0.00 | 0.00 | 0.00 | 83 | 1015.3 |
| 20260510104613 | 15 | 58 | 11.3 | 24.1 | 0.00 | 0.00 | 0.00 | 83 | 1015.1 |
| 20260510104109 | 15 | 77 | 25.7 | 32.2 | 0.00 | 0.00 | 0.00 | 83 | 1014.7 |
| 20260510103606 | 15 | 77 | 25.7 | 33.8 | 0.00 | 0.00 | 0.00 | 82 | 1014.6 |
| 20260510103102 | 15 | 86 | 12.9 | 24.1 | 0.00 | 0.00 | 0.00 | 82 | 1014.7 |
| 20260510102557 | 15 | 25 | 11.3 | 27.4 | 0.00 | 0.00 | 0.00 | 82 | 1015.0 |
| 20260510102054 | 15 | 69 | 20.9 | 24.1 | 0.00 | 0.00 | 0.00 | 81 | 1014.7 |
| 20260510101552 | 15 | 76 | 8.0 | 29.0 | 0.00 | 0.00 | 0.00 | 81 | 1014.5 |
| 20260510101050 | 15 | 20 | 12.9 | 20.9 | 0.00 | 0.00 | 0.00 | 81 | 1014.6 |
| 20260510100545 | 15 | 35 | 16.1 | 22.5 | 0.00 | 0.00 | 0.00 | 80 | 1014.2 |
| 20260510100043 | 15 | 65 | 17.7 | 22.5 | 0.00 | 0.00 | 0.00 | 80 | 1014.0 |
| 20260510095539 | 15 | 12 | 8.0 | 20.9 | 0.00 | 0.00 | 0.00 | 79 | 1014.4 |
| 20260510095037 | 15 | 12 | 4.8 | 16.1 | 0.00 | 0.00 | 0.00 | 79 | 1014.0 |
| 20260510094532 | 15 | 89 | 16.1 | 19.3 | 0.00 | 0.00 | 0.00 | 78 | 1014.0 |
| 20260510094028 | 16 | 60 | 11.3 | 17.7 | 0.00 | 0.00 | 0.00 | 78 | 1014.1 |
| 20260510093524 | 16 | 69 | 11.3 | 19.3 | 0.00 | 0.00 | 0.00 | 77 | 1013.5 |
| 20260510093021 | 16 | 77 | 14.5 | 27.4 | 0.00 | 0.00 | 0.00 | 77 | 1013.4 |
| 20260510092518 | 16 | 81 | 16.1 | 27.4 | 0.00 | 0.00 | 0.00 | 77 | 1013.4 |
| 20260510092017 | 16 | 78 | 25.7 | 29.0 | 0.00 | 0.00 | 0.00 | 77 | 1013.3 |
| 20260510091515 | 16 | 78 | 19.3 | 25.7 | 0.00 | 0.00 | 0.00 | 76 | 1013.3 |
| 20260510091010 | 16 | 75 | 20.9 | 22.5 | 0.00 | 0.00 | 0.00 | 76 | 1013.0 |
| 20260510090508 | 16 | 65 | 14.5 | 22.5 | 0.00 | 0.00 | 0.00 | 75 | 1013.2 |
| 20260510090003 | 16 | 73 | 12.9 | 24.1 | 0.00 | 0.00 | 0.00 | 75 | 1013.0 |
| 20260510085458 | 17 | 83 | 16.1 | 19.3 | 0.00 | 0.00 | 0.00 | 75 | 1013.0 |
| 20260510084954 | 17 | 91 | 14.5 | 22.5 | 0.00 | 0.00 | 0.00 | 75 | 1013.0 |
| 20260510084451 | 17 | 84 | 16.1 | 24.1 | 0.00 | 0.00 | 0.00 | 75 | 1013.0 |
| 20260510083948 | 17 | 76 | 17.7 | 25.7 | 0.00 | 0.00 | 0.00 | 76 | 1013.2 |
| 20260510083445 | 17 | 80 | 16.1 | 17.7 | 0.00 | 0.00 | 0.00 | 76 | 1013.4 |
| 20260510082940 | 17 | 35 | 3.2 | 9.7 | 0.00 | 0.00 | 0.00 | 76 | 1013.6 |
| 20260510082438 | 17 | 79 | 9.7 | 11.3 | 0.00 | 0.00 | 0.00 | 75 | 1013.5 |
| 20260510081937 | 17 | 89 | 6.4 | 16.1 | 0.00 | 0.00 | 0.00 | 75 | 1013.2 |
| 20260510081433 | 17 | 78 | 11.3 | 17.7 | 0.00 | 0.00 | 0.00 | 75 | 1013.0 |
| 20260510080930 | 17 | 94 | 16.1 | 19.3 | 0.00 | 0.00 | 0.00 | 74 | 1013.2 |
| 20260510080428 | 17 | 95 | 22.5 | 30.6 | 0.00 | 0.00 | 0.00 | 74 | 1013.0 |
| 20260510075925 | 17 | 99 | 22.5 | 32.2 | 0.00 | 0.00 | 0.00 | 74 | 1012.8 |
| 20260510075424 | 18 | 103 | 27.4 | 38.6 | 0.00 | 0.00 | 0.00 | 74 | 1012.8 |
| 20260510074920 | 18 | 96 | 19.3 | 35.4 | 0.00 | 0.00 | 0.00 | 74 | 1012.3 |
| 20260510074417 | 18 | 84 | 19.3 | 27.4 | 0.00 | 0.00 | 0.00 | 73 | 1012.3 |
| 20260510073913 | 18 | 100 | 20.9 | 25.7 | 0.00 | 0.00 | 0.00 | 73 | 1012.4 |
| 20260510073409 | 18 | 94 | 17.7 | 29.0 | 0.00 | 0.00 | 0.00 | 73 | 1012.2 |
| 20260510072905 | 18 | 92 | 22.5 | 24.1 | 0.00 | 0.00 | 0.00 | 72 | 1012.3 |
| 20260510072402 | 18 | 76 | 14.5 | 24.1 | 0.00 | 0.00 | 0.00 | 72 | 1012.1 |
| 20260510071858 | 18 | 81 | 14.5 | 25.7 | 0.00 | 0.00 | 0.00 | 72 | 1012.0 |
| 20260510071354 | 18 | 84 | 20.9 | 25.7 | 0.00 | 0.00 | 0.00 | 71 | 1012.1 |
| 20260510070853 | 18 | 84 | 16.1 | 27.4 | 0.00 | 0.00 | 0.00 | 71 | 1012.1 |
| 20260510070350 | 19 | 51 | 8.0 | 17.7 | 0.00 | 0.00 | 0.00 | 70 | 1012.2 |
| 20260510065850 | 19 | 67 | 11.3 | 20.9 | 0.00 | 0.00 | 0.00 | 70 | 1012.5 |
| 20260510065347 | 19 | 78 | 14.5 | 19.3 | 0.00 | 0.00 | 0.00 | 69 | 1012.3 |
| 20260510064843 | 19 | 24 | 12.9 | 19.3 | 0.00 | 0.00 | 0.00 | 68 | 1012.7 |
| 20260510064342 | 20 | 66 | 14.5 | 20.9 | 0.00 | 0.00 | 0.00 | 68 | 1012.5 |
| 20260510063838 | 20 | 25 | 12.9 | 16.1 | 0.00 | 0.00 | 0.00 | 66 | 1012.8 |
| 20260510063334 | 20 | 15 | 8.0 | 19.3 | 0.00 | 0.00 | 0.00 | 65 | 1012.5 |
| 20260510062831 | 20 | 75 | 27.4 | 29.0 | 0.00 | 0.00 | 0.00 | 65 | 1012.4 |
| 20260510062326 | 20 | 72 | 27.4 | 33.8 | 0.00 | 0.00 | 0.00 | 63 | 1012.3 |
| 20260510061821 | 20 | 75 | 25.7 | 35.4 | 0.00 | 0.00 | 0.00 | 62 | 1012.1 |
| 20260510061319 | 21 | 80 | 25.7 | 33.8 | 0.00 | 0.00 | 0.00 | 60 | 1012.1 |
| 20260510060815 | 21 | 93 | 24.1 | 35.4 | 0.00 | 0.00 | 0.00 | 58 | 1012.1 |
| 20260510060312 | 21 | 79 | 14.5 | 22.5 | 0.00 | 0.00 | 0.00 | 54 | 1012.2 |
| 20260510055809 | 22 | 60 | 8.0 | 20.9 | 0.00 | 0.00 | 0.00 | 52 | 1011.5 |
| 20260510055308 | 22 | 79 | 8.0 | 12.9 | 0.00 | 0.00 | 0.00 | 50 | 1011.4 |
| 20260510054807 | 23 | 109 | 16.1 | 17.7 | 0.00 | 0.00 | 0.00 | 47 | 1011.3 |
| 20260510054303 | 23 | 27 | 14.5 | 25.7 | 0.00 | 0.00 | 0.00 | 43 | 1011.2 |
| 20260510053758 | 23 | 60 | 4.8 | 14.5 | 0.00 | 0.00 | 0.00 | 37 | 1011.2 |
| 20260510053253 | 23 | 260 | 16.1 | 37.0 | 0.00 | 0.00 | 0.00 | 39 | 1010.8 |
| 20260510052750 | 23 | 71 | 19.3 | 35.4 | 0.00 | 0.00 | 0.00 | 41 | 1011.3 |
| 20260510052240 | 23 | 26 | 9.7 | 27.4 | 0.00 | 0.00 | 0.00 | 37 | 1011.7 |
| 20260510051736 | 23 | 338 | 16.1 | 24.1 | 0.00 | 0.00 | 0.00 | 34 | 1011.6 |
| 20260510051233 | 23 | 8 | 6.4 | 17.7 | 0.00 | 0.00 | 0.00 | 30 | 1011.2 |
| 20260510050730 | 24 | 76 | 17.7 | 19.3 | 0.00 | 0.00 | 0.00 | 26 | 1011.1 |
| 20260510050227 | 24 | 84 | 9.7 | 16.1 | 0.00 | 0.00 | 0.00 | 22 | 1010.8 |
| 20260510045724 | 25 | 88 | 12.9 | 14.5 | 0.00 | 0.00 | 0.00 | 20 | 1011.3 |
| 20260510045221 | 26 | 21 | 8.0 | 12.9 | 0.00 | 0.00 | 0.00 | 18 | 1011.6 |
| 20260510044717 | 27 | 11 | 3.2 | 4.8 | 0.00 | 0.00 | 0.00 | 17 | 1011.3 |
| 20260510044216 | 27 | 27 | 4.8 | 8.0 | 0.00 | 0.00 | 0.00 | 18 | 1011.2 |
| 20260510043710 | 26 | 47 | 4.8 | 9.7 | 0.00 | 0.00 | 0.00 | 17 | 1011.3 |
| 20260510043207 | 27 | 13 | 6.4 | 6.4 | 0.00 | 0.00 | 0.00 | 16 | 1011.1 |
| 20260510042704 | 28 | 19 | 8.0 | 16.1 | 0.00 | 0.00 | 0.00 | 16 | 1010.9 |
| 20260510042201 | 28 | 41 | 14.5 | 19.3 | 0.00 | 0.00 | 0.00 | 16 | 1011.3 |
| 20260510041658 | 28 | 64 | 12.9 | 20.9 | 0.00 | 0.00 | 0.00 | 17 | 1011.1 |
| 20260510041155 | 28 | 78 | 11.3 | 59.5 | 0.00 | 0.00 | 0.00 | 16 | 1011.2 |
| 20260510040652 | 28 | 179 | 14.5 | 45.1 | 0.00 | 0.00 | 0.00 | 16 | 1011.7 |
| 20260510040149 | 28 | 250 | 14.5 | 14.5 | 0.00 | 0.00 | 0.00 | 15 | 1011.5 |
| 20260510035644 | 28 | 304 | 0.0 | 3.2 | 0.00 | 0.00 | 0.00 | 15 | 1011.1 |
| 20260510035139 | 29 | 222 | 12.9 | 25.7 | 0.00 | 0.00 | 0.00 | 15 | 1010.7 |
| 20260510034636 | 28 | 133 | 16.1 | 38.6 | 0.00 | 0.00 | 0.00 | 16 | 1011.1 |
| 20260510034133 | 28 | 142 | 30.6 | 37.0 | 0.00 | 0.00 | 0.00 | 15 | 1011.1 |
| 20260510033629 | 27 | 174 | 19.3 | 45.1 | 0.00 | 0.00 | 0.00 | 16 | 1010.7 |
| 20260510033128 | 26 | 97 | 11.3 | 16.1 | 0.00 | 0.00 | 0.00 | 14 | 1010.6 |
| 20260510032623 | 27 | 130 | 9.7 | 14.5 | 0.00 | 0.00 | 0.00 | 14 | 1010.6 |
| 20260510032119 | 27 | 313 | 1.6 | 3.2 | 0.00 | 0.00 | 0.00 | 14 | 1010.4 |
| 20260510031614 | 27 | 25 | 1.6 | 6.4 | 0.00 | 0.00 | 0.00 | 14 | 1010.6 |
| 20260510031111 | 27 | 28 | 4.8 | 6.4 | 0.00 | 0.00 | 0.00 | 14 | 1010.4 |
| 20260510030606 | 27 | 18 | 3.2 | 11.3 | 0.00 | 0.00 | 0.00 | 15 | 1010.2 |
| 20260510030104 | 28 | 359 | 6.4 | 22.5 | 0.00 | 0.00 | 0.00 | 16 | 1010.2 |
| 20260510025600 | 27 | 354 | 17.7 | 22.5 | 0.00 | 0.00 | 0.00 | 16 | 1010.3 |
| 20260510025058 | 26 | 344 | 11.3 | 20.9 | 0.00 | 0.00 | 0.00 | 17 | 1010.4 |
| 20260510024555 | 23 | 339 | 8.0 | 11.3 | 0.00 | 0.00 | 0.00 | 17 | 1010.3 |
| 20260510024050 | 23 | 266 | 11.3 | 14.5 | 0.00 | 0.00 | 0.00 | 17 | 1010.2 |
| 20260510023547 | 23 | 344 | 4.8 | 8.0 | 0.00 | 0.00 | 0.00 | 16 | 1009.7 |
| 20260510023044 | 25 | 283 | 0.0 | 0.0 | 0.00 | 0.00 | 0.00 | 16 | 1009.4 |
| 20260510022544 | 25 | 153 | 3.2 | 3.2 | 0.00 | 0.00 | 0.00 | 16 | 1008.9 |
| 20260510022038 | 25 | 148 | 3.2 | 4.8 | 0.00 | 0.00 | 0.00 | 16 | 1008.8 |
| 20260510021535 | 25 | 138 | 4.8 | 8.0 | 0.00 | 0.00 | 0.00 | 16 | 1008.7 |
| 20260510021032 | 25 | 144 | 4.8 | 4.8 | 0.00 | 0.00 | 0.00 | 17 | 1008.6 |
| 20260510020527 | 24 | 163 | 3.2 | 3.2 | 0.00 | 0.00 | 0.00 | 17 | 1008.7 |
| 20260510020023 | 25 | 166 | 3.2 | 3.2 | 0.00 | 0.00 | 0.00 | 16 | 1008.5 |
| 20260510015518 | 25 | 197 | 3.2 | 3.2 | 0.00 | 0.00 | 0.00 | 16 | 1008.4 |
| 20260510015015 | 25 | 187 | 0.0 | 1.6 | 0.00 | 0.00 | 0.00 | 15 | 1008.2 |
| 20260510014511 | 26 | 211 | 1.6 | 1.6 | 0.00 | 0.00 | 0.00 | 15 | 1008.4 |
| 20260510014009 | 26 | 222 | 1.6 | 3.2 | 0.00 | 0.00 | 0.00 | 15 | 1008.4 |
| 20260510013502 | 26 | 218 | 1.6 | 3.2 | 0.00 | 0.00 | 0.00 | 15 | 1008.2 |
| 20260510012959 | 27 | 265 | 3.2 | 3.2 | 0.00 | 0.00 | 0.00 | 14 | 1008.2 |
| 20260510012453 | 27 | 333 | 0.0 | 1.6 | 0.00 | 0.00 | 0.00 | 14 | 1008.2 |
| 20260510011949 | 28 | 326 | 0.0 | 3.2 | 0.00 | 0.00 | 0.00 | 13 | 1008.2 |
| 20260510011444 | 28 | 325 | 1.6 | 3.2 | 0.00 | 0.00 | 0.00 | 13 | 1008.0 |
| 20260510010940 | 29 | 353 | 3.2 | 6.4 | 0.00 | 0.00 | 0.00 | 13 | 1007.9 |
| 20260510010437 | 30 | 356 | 3.2 | 4.8 | 0.00 | 0.00 | 0.00 | 12 | 1007.9 |
| 20260510005934 | 30 | 340 | 4.8 | 6.4 | 0.00 | 0.00 | 0.00 | 12 | 1007.9 |
| 20260510005430 | 31 | 287 | 9.7 | 9.7 | 0.00 | 0.00 | 0.00 | 12 | 1007.9 |
| 20260510004927 | 31 | 298 | 6.4 | 8.0 | 0.00 | 0.00 | 0.00 | 12 | 1007.9 |
| 20260510004425 | 31 | 304 | 14.5 | 20.9 | 0.00 | 0.00 | 0.00 | 11 | 1007.7 |
| 20260510003923 | 32 | 297 | 9.7 | 14.5 | 0.00 | 0.00 | 0.00 | 11 | 1007.8 |
| 20260510003419 | 32 | 323 | 12.9 | 14.5 | 0.00 | 0.00 | 0.00 | 11 | 1007.9 |
| 20260510002919 | 31 | 326 | 9.7 | 17.7 | 0.00 | 0.00 | 0.00 | 11 | 1007.7 |
| 20260510002416 | 32 | 286 | 16.1 | 22.5 | 0.00 | 0.00 | 0.00 | 11 | 1007.8 |
| 20260510001912 | 32 | 308 | 20.9 | 22.5 | 0.00 | 0.00 | 0.00 | 10 | 1007.9 |
| 20260510001410 | 32 | 301 | 20.9 | 25.7 | 0.00 | 0.00 | 0.00 | 10 | 1007.9 |
| 20260510000907 | 32 | 309 | 9.7 | 20.9 | 0.00 | 0.00 | 0.00 | 10 | 1007.8 |
| 20260510000404 | 32 | 326 | 16.1 | 27.4 | 0.00 | 0.00 | 0.00 | 9 | 1007.9 |
| 20260509235900 | 32 | 350 | 12.9 | 24.1 | 0.00 | 0.00 | 0.00 | 9 | 1007.9 |
| 20260509235357 | 32 | 345 | 16.1 | 24.1 | 0.00 | 0.00 | 0.00 | 9 | 1008.0 |
| 20260509234853 | 32 | 334 | 17.7 | 24.1 | 0.00 | 0.00 | 0.00 | 9 | 1008.0 |
| 20260509234350 | 33 | 283 | 11.3 | 12.9 | 0.00 | 0.00 | 0.00 | 9 | 1007.9 |
| 20260509233848 | 32 | 289 | 6.4 | 12.9 | 0.00 | 0.00 | 0.00 | 9 | 1008.0 |
| 20260509233345 | 32 | 299 | 12.9 | 24.1 | 0.00 | 0.00 | 0.00 | 9 | 1008.3 |
| 20260509232841 | 32 | 276 | 14.5 | 19.3 | 0.00 | 0.00 | 0.00 | 9 | 1008.2 |
| 20260509232339 | 32 | 273 | 22.5 | 29.0 | 0.00 | 0.00 | 0.00 | 9 | 1008.4 |
| 20260509231834 | 32 | 266 | 27.4 | 35.4 | 0.00 | 0.00 | 0.00 | 9 | 1008.3 |
| 20260509231332 | 32 | 289 | 17.7 | 27.4 | 0.00 | 0.00 | 0.00 | 9 | 1008.4 |
| 20260509230829 | 32 | 312 | 27.4 | 29.0 | 0.00 | 0.00 | 0.00 | 10 | 1008.5 |
| 20260509230326 | 32 | 288 | 20.9 | 27.4 | 0.00 | 0.00 | 0.00 | 10 | 1008.4 |
| 20260509225821 | 32 | 304 | 16.1 | 27.4 | 0.00 | 0.00 | 0.00 | 10 | 1008.5 |
| 20260509225319 | 32 | 281 | 16.1 | 27.4 | 0.00 | 0.00 | 0.00 | 10 | 1008.5 |
| 20260509224814 | 32 | 276 | 20.9 | 32.2 | 0.00 | 0.00 | 0.00 | 10 | 1008.6 |
| 20260509224311 | 32 | 309 | 16.1 | 25.7 | 0.00 | 0.00 | 0.00 | 10 | 1008.6 |
| 20260509223807 | 32 | 287 | 19.3 | 29.0 | 0.00 | 0.00 | 0.00 | 10 | 1008.4 |
| 20260509223305 | 32 | 235 | 19.3 | 24.1 | 0.00 | 0.00 | 0.00 | 11 | 1008.7 |
| 20260509222801 | 32 | 241 | 27.4 | 33.8 | 0.00 | 0.00 | 0.00 | 10 | 1008.6 |
| 20260509222257 | 32 | 258 | 17.7 | 37.0 | 0.00 | 0.00 | 0.00 | 11 | 1008.6 |
| 20260509221753 | 32 | 253 | 24.1 | 35.4 | 0.00 | 0.00 | 0.00 | 10 | 1008.7 |
| 20260509221250 | 32 | 258 | 24.1 | 27.4 | 0.00 | 0.00 | 0.00 | 11 | 1008.7 |
| 20260509220745 | 32 | 279 | 14.5 | 24.1 | 0.00 | 0.00 | 0.00 | 11 | 1008.7 |
| 20260509220242 | 32 | 320 | 27.4 | 37.0 | 0.00 | 0.00 | 0.00 | 10 | 1008.9 |
| 20260509215737 | 32 | 287 | 16.1 | 30.6 | 0.00 | 0.00 | 0.00 | 11 | 1008.7 |
| 20260509215234 | 32 | 295 | 20.9 | 32.2 | 0.00 | 0.00 | 0.00 | 11 | 1008.8 |
| 20260509214731 | 32 | 314 | 32.2 | 37.0 | 0.00 | 0.00 | 0.00 | 11 | 1009.0 |
| 20260509214227 | 32 | 295 | 41.8 | 45.1 | 0.00 | 0.00 | 0.00 | 12 | 1008.8 |
| 20260509213719 | 32 | 314 | 25.7 | 35.4 | 0.00 | 0.00 | 0.00 | 12 | 1009.2 |
| 20260509213214 | 32 | 298 | 35.4 | 45.1 | 0.00 | 0.00 | 0.00 | 12 | 1009.0 |
| 20260509212712 | 32 | 301 | 35.4 | 40.2 | 0.00 | 0.00 | 0.00 | 12 | 1009.2 |
| 20260509212209 | 32 | 315 | 29.0 | 35.4 | 0.00 | 0.00 | 0.00 | 13 | 1009.3 |
| 20260509211705 | 32 | 284 | 29.0 | 41.8 | 0.00 | 0.00 | 0.00 | 13 | 1009.3 |
| 20260509211202 | 32 | 295 | 17.7 | 35.4 | 0.00 | 0.00 | 0.00 | 14 | 1009.3 |
| 20260509210658 | 32 | 287 | 33.8 | 43.5 | 0.00 | 0.00 | 0.00 | 13 | 1009.5 |
| 20260509210156 | 32 | 303 | 19.3 | 35.4 | 0.00 | 0.00 | 0.00 | 13 | 1009.6 |
| 20260509205651 | 32 | 318 | 27.4 | 37.0 | 0.00 | 0.00 | 0.00 | 13 | 1009.5 |
| 20260509205150 | 32 | 300 | 32.2 | 40.2 | 0.00 | 0.00 | 0.00 | 13 | 1009.7 |
| 20260509204646 | 32 | 316 | 35.4 | 40.2 | 0.00 | 0.00 | 0.00 | 13 | 1009.5 |
| 20260509204143 | 32 | 274 | 25.7 | 40.2 | 0.00 | 0.00 | 0.00 | 14 | 1009.6 |
| 20260509203638 | 32 | 303 | 33.8 | 43.5 | 0.00 | 0.00 | 0.00 | 14 | 1009.6 |
| 20260509203132 | 32 | 280 | 25.7 | 41.8 | 0.00 | 0.00 | 0.00 | 15 | 1009.6 |
| 20260509202631 | 32 | 247 | 27.4 | 38.6 | 0.00 | 0.00 | 0.00 | 16 | 1009.7 |
| 20260509202127 | 31 | 285 | 29.0 | 37.0 | 0.00 | 0.00 | 0.00 | 16 | 1009.8 |
| 20260509201622 | 32 | 265 | 14.5 | 27.4 | 0.00 | 0.00 | 0.00 | 17 | 1009.7 |
| 20260509201120 | 32 | 294 | 25.7 | 33.8 | 0.00 | 0.00 | 0.00 | 17 | 1009.8 |
| 20260509200615 | 31 | 291 | 30.6 | 43.5 | 0.00 | 0.00 | 0.00 | 18 | 1009.9 |
| 20260509200111 | 31 | 234 | 22.5 | 27.4 | 0.00 | 0.00 | 0.00 | 18 | 1010.1 |
| 20260509195607 | 31 | 246 | 29.0 | 35.4 | 0.00 | 0.00 | 0.00 | 18 | 1010.1 |
| 20260509195102 | 31 | 284 | 22.5 | 25.7 | 0.00 | 0.00 | 0.00 | 20 | 1010.3 |
| 20260509194601 | 31 | 263 | 24.1 | 40.2 | 0.00 | 0.00 | 0.00 | 19 | 1010.2 |
| 20260509194059 | 31 | 245 | 27.4 | 35.4 | 0.00 | 0.00 | 0.00 | 19 | 1010.4 |
| 20260509193555 | 31 | 255 | 19.3 | 30.6 | 0.00 | 0.00 | 0.00 | 18 | 1010.2 |
| 20260509193051 | 31 | 281 | 17.7 | 30.6 | 0.00 | 0.00 | 0.00 | 18 | 1010.5 |